createdAt,value
2018-11-26T00:00:42.018Z,63.00
2018-11-26T00:03:16.059Z,63.63
2018-11-26T00:05:50.032Z,63.31
2018-11-26T00:08:23.982Z,63.45
2018-11-26T00:11:32.073Z,63.06
2018-11-26T00:14:06.375Z,62.94
2018-11-26T00:16:40.457Z,63.24
2018-11-26T00:19:14.347Z,63.35
2018-11-26T00:21:48.274Z,62.56
2018-11-26T00:24:22.126Z,62.76
2018-11-26T00:26:56.147Z,62.86
2018-11-26T00:29:30.003Z,62.97
2018-11-26T00:32:04.102Z,63.46
2018-11-26T00:34:37.987Z,62.60
2018-11-26T00:37:11.868Z,62.71
2018-11-26T00:39:45.688Z,62.61
2018-11-26T00:42:19.720Z,62.67
2018-11-26T00:44:53.620Z,62.64
2018-11-26T00:47:27.480Z,62.80
2018-11-26T00:50:01.335Z,62.59
2018-11-26T00:52:35.332Z,62.82
2018-11-26T00:55:10.485Z,62.77
2018-11-26T00:57:44.406Z,62.46
2018-11-26T01:00:19.253Z,62.39
2018-11-26T01:02:53.206Z,62.32
2018-11-26T01:05:40.690Z,62.01
2018-11-26T01:08:14.600Z,62.42
2018-11-26T01:10:48.438Z,62.06
2018-11-26T01:13:22.370Z,62.43
2018-11-26T01:15:56.195Z,62.26
2018-11-26T01:18:30.173Z,62.42
2018-11-26T01:21:04.015Z,62.29
2018-11-26T01:23:37.880Z,62.25
2018-11-26T01:26:11.713Z,62.44
2018-11-26T01:28:45.667Z,61.99
2018-11-26T01:31:19.473Z,62.21
2018-11-26T01:33:53.344Z,62.06
2018-11-26T01:36:27.207Z,62.00
2018-11-26T01:39:01.355Z,61.99
2018-11-26T01:41:35.261Z,62.19
2018-11-26T01:44:09.118Z,61.66
2018-11-26T01:46:42.991Z,61.58
2018-11-26T01:49:17.142Z,61.79
2018-11-26T01:51:51.007Z,61.73
2018-11-26T01:54:25.139Z,62.10
2018-11-26T01:56:58.996Z,62.00
2018-11-26T01:59:32.871Z,62.14
2018-11-26T02:02:06.960Z,61.92
2018-11-26T02:04:41.021Z,61.65
2018-11-26T02:07:14.854Z,61.93
2018-11-26T02:09:48.716Z,61.71
2018-11-26T02:12:22.538Z,61.87
2018-11-26T02:14:56.507Z,61.92
2018-11-26T02:17:30.353Z,61.70
2018-11-26T02:20:04.508Z,61.49
2018-11-26T02:22:38.489Z,61.69
2018-11-26T02:25:12.620Z,61.36
2018-11-26T02:27:46.494Z,61.27
2018-11-26T02:30:20.388Z,61.16
2018-11-26T02:32:54.216Z,60.90
2018-11-26T02:35:28.104Z,61.21
2018-11-26T02:38:03.906Z,61.30
2018-11-26T02:40:37.778Z,61.33
2018-11-26T02:43:11.649Z,61.04
2018-11-26T02:45:45.614Z,61.06
2018-11-26T02:48:19.383Z,61.30
2018-11-26T02:50:53.540Z,60.92
2018-11-26T02:53:27.353Z,60.96
2018-11-26T02:56:01.241Z,60.99
2018-11-26T02:58:35.129Z,61.01
2018-11-26T03:01:09.081Z,60.77
2018-11-26T03:03:42.986Z,60.09
2018-11-26T03:06:16.945Z,61.36
2018-11-26T03:08:50.784Z,61.28
2018-11-26T03:11:24.619Z,61.22
2018-11-26T03:13:58.524Z,61.62
2018-11-26T03:16:32.405Z,60.95
2018-11-26T03:19:06.583Z,60.90
2018-11-26T03:21:40.650Z,61.18
2018-11-26T03:24:14.481Z,60.95
2018-11-26T03:26:48.427Z,60.88
2018-11-26T03:29:22.267Z,61.08
2018-11-26T03:31:56.286Z,61.06
2018-11-26T03:34:30.107Z,61.70
2018-11-26T03:37:04.168Z,61.27
2018-11-26T03:39:38.070Z,61.09
2018-11-26T03:42:12.012Z,61.06
2018-11-26T03:44:45.863Z,61.40
2018-11-26T03:47:19.821Z,60.97
2018-11-26T03:49:53.677Z,60.62
2018-11-26T03:52:27.548Z,61.50
2018-11-26T03:55:01.953Z,61.66
2018-11-26T03:57:35.857Z,61.91
2018-11-26T04:00:11.564Z,61.67
2018-11-26T04:02:45.479Z,61.50
2018-11-26T04:05:19.345Z,61.56
2018-11-26T04:07:53.311Z,61.88
2018-11-26T04:10:27.137Z,61.31
2018-11-26T04:13:01.118Z,61.45
2018-11-26T04:15:34.957Z,62.08
2018-11-26T04:18:08.848Z,61.84
2018-11-26T04:20:42.718Z,61.78
2018-11-26T04:23:16.729Z,61.84
2018-11-26T04:25:50.591Z,61.59
2018-11-26T04:28:24.570Z,61.41
2018-11-26T04:30:58.419Z,61.36
2018-11-26T04:34:02.991Z,61.21
2018-11-26T04:36:36.890Z,61.33
2018-11-26T04:39:10.777Z,61.52
2018-11-26T04:41:44.604Z,61.46
2018-11-26T04:44:18.514Z,61.56
2018-11-26T04:46:54.061Z,61.78
2018-11-26T04:49:28.162Z,61.39
2018-11-26T04:52:02.074Z,61.61
2018-11-26T04:54:36.023Z,61.49
2018-11-26T04:57:09.827Z,61.58
2018-11-26T04:59:44.020Z,61.58
2018-11-26T05:02:17.848Z,61.37
2018-11-26T05:04:51.724Z,61.65
2018-11-26T05:07:25.590Z,61.56
2018-11-26T05:09:59.531Z,61.47
2018-11-26T05:12:33.375Z,61.58
2018-11-26T05:15:08.958Z,61.52
2018-11-26T05:17:42.812Z,61.45
2018-11-26T05:20:16.699Z,61.84
2018-11-26T05:22:50.524Z,61.96
2018-11-26T05:25:24.459Z,61.98
2018-11-26T05:27:58.291Z,61.85
2018-11-26T05:30:32.173Z,61.91
2018-11-26T05:33:06.670Z,62.09
2018-11-26T05:35:40.527Z,62.26
2018-11-26T05:38:14.351Z,62.26
2018-11-26T05:40:48.217Z,62.57
2018-11-26T05:43:22.111Z,62.12
2018-11-26T05:45:55.972Z,62.32
2018-11-26T05:48:29.808Z,62.54
2018-11-26T05:51:03.940Z,62.75
2018-11-26T05:53:37.761Z,62.72
2018-11-26T05:56:11.898Z,62.56
2018-11-26T05:58:45.741Z,62.35
2018-11-26T06:01:19.721Z,62.57
2018-11-26T06:03:53.533Z,62.50
2018-11-26T06:06:27.384Z,62.63
2018-11-26T06:09:01.221Z,62.71
2018-11-26T06:11:35.180Z,62.66
2018-11-26T06:14:09.034Z,62.50
2018-11-26T06:16:42.896Z,62.55
2018-11-26T06:19:16.827Z,62.52
2018-11-26T06:21:50.861Z,62.62
2018-11-26T06:24:24.728Z,62.57
2018-11-26T06:26:58.554Z,62.56
2018-11-26T06:29:32.447Z,62.49
2018-11-26T06:32:06.375Z,62.30
2018-11-26T06:34:42.488Z,62.26
2018-11-26T06:37:14.245Z,62.28
2018-11-26T06:39:48.088Z,62.22
2018-11-26T06:42:22.031Z,62.22
2018-11-26T06:44:55.874Z,62.47
2018-11-26T06:47:29.866Z,62.23
2018-11-26T06:50:03.817Z,62.48
2018-11-26T06:52:37.889Z,62.40
2018-11-26T06:55:13.136Z,62.62
2018-11-26T06:57:47.018Z,62.81
2018-11-26T07:00:21.470Z,62.97
2018-11-26T07:02:55.331Z,63.15
2018-11-26T07:05:29.180Z,63.18
2018-11-26T07:08:03.395Z,63.03
2018-11-26T07:10:37.343Z,63.25
2018-11-26T07:13:11.304Z,63.01
2018-11-26T07:15:45.153Z,63.45
2018-11-26T07:18:19.139Z,63.18
2018-11-26T07:20:52.964Z,63.13
2018-11-26T07:23:26.939Z,63.04
2018-11-26T07:26:00.914Z,63.00
2018-11-26T07:28:34.873Z,62.95
2018-11-26T07:31:08.706Z,62.99
2018-11-26T07:33:42.652Z,62.94
2018-11-26T07:36:16.492Z,62.92
2018-11-26T07:38:50.471Z,62.86
2018-11-26T07:41:24.463Z,62.98
2018-11-26T07:43:58.590Z,62.89
2018-11-26T07:46:32.438Z,63.17
2018-11-26T07:49:07.103Z,63.35
2018-11-26T07:51:41.035Z,63.30
2018-11-26T07:54:14.895Z,63.73
2018-11-26T07:56:48.702Z,63.40
2018-11-26T07:59:22.739Z,64.30
2018-11-26T08:01:56.566Z,64.17
2018-11-26T08:04:30.500Z,64.18
2018-11-26T08:07:04.410Z,63.69
2018-11-26T08:09:38.315Z,63.80
2018-11-26T08:12:12.222Z,63.61
2018-11-26T08:14:46.155Z,64.69
2018-11-26T08:17:20.017Z,64.60
2018-11-26T08:19:54.795Z,64.20
2018-11-26T08:22:28.695Z,64.44
2018-11-26T08:25:02.577Z,64.69
2018-11-26T08:27:36.661Z,64.45
2018-11-26T08:30:15.634Z,64.25
2018-11-26T08:32:50.833Z,64.47
2018-11-26T08:35:24.722Z,64.36
2018-11-26T08:38:03.834Z,65.02
2018-11-26T08:40:44.505Z,65.24
2018-11-26T08:43:20.495Z,64.95
2018-11-26T08:45:55.460Z,64.56
2018-11-26T08:48:30.596Z,64.90
2018-11-26T08:51:04.662Z,65.26
2018-11-26T08:53:38.753Z,65.18
2018-11-26T08:56:13.067Z,65.28
2018-11-26T08:58:46.945Z,65.24
2018-11-26T09:01:25.167Z,65.90
2018-11-26T09:04:03.154Z,66.22
2018-11-26T09:06:37.110Z,66.03
2018-11-26T09:09:11.746Z,65.65
2018-11-26T09:11:45.929Z,64.74
2018-11-26T09:14:19.863Z,64.30
2018-11-26T09:16:54.143Z,64.25
2018-11-26T09:19:28.090Z,63.90
2018-11-26T09:22:02.163Z,64.49
2018-11-26T09:24:36.194Z,64.15
2018-11-26T09:27:10.096Z,63.66
2018-11-26T09:29:44.024Z,64.33
2018-11-26T09:32:17.895Z,63.60
2018-11-26T09:34:51.755Z,63.57
2018-11-26T09:37:25.784Z,64.04
2018-11-26T09:39:59.636Z,63.28
2018-11-26T09:42:33.506Z,63.51
2018-11-26T09:45:10.708Z,62.68
2018-11-26T09:47:44.626Z,62.68
2018-11-26T09:50:20.990Z,62.35
2018-11-26T09:52:55.871Z,62.64
2018-11-26T09:55:28.953Z,62.68
2018-11-26T09:58:02.948Z,62.53
2018-11-26T10:00:36.834Z,62.38
2018-11-26T10:03:10.864Z,62.60
2018-11-26T10:05:44.854Z,62.41
2018-11-26T10:08:18.791Z,62.33
2018-11-26T10:10:52.649Z,62.06
2018-11-26T10:13:26.623Z,61.92
2018-11-26T10:16:00.549Z,61.50
2018-11-26T10:18:34.419Z,61.68
2018-11-26T10:21:08.298Z,60.81
2018-11-26T10:23:42.168Z,61.22
2018-11-26T10:26:16.014Z,62.38
2018-11-26T10:28:50.029Z,62.04
2018-11-26T10:31:23.896Z,62.36
2018-11-26T10:33:57.857Z,62.33
2018-11-26T10:36:31.677Z,61.85
2018-11-26T10:39:09.171Z,61.93
2018-11-26T10:41:43.101Z,60.75
2018-11-26T10:44:17.183Z,61.03
2018-11-26T10:46:51.269Z,61.58
2018-11-26T10:49:25.221Z,60.99
2018-11-26T10:51:59.050Z,60.78
2018-11-26T10:54:32.936Z,60.25
2018-11-26T10:57:07.065Z,60.82
2018-11-26T10:59:41.278Z,60.92
2018-11-26T11:02:20.112Z,60.90
2018-11-26T11:04:54.033Z,60.96
2018-11-26T11:07:27.873Z,60.72
2018-11-26T11:10:01.798Z,60.40
2018-11-26T11:12:35.643Z,60.22
2018-11-26T11:15:12.034Z,59.62
2018-11-26T11:17:45.971Z,60.45
2018-11-26T11:20:22.192Z,60.00
2018-11-26T11:22:56.031Z,60.09
2018-11-26T11:25:29.936Z,60.33
2018-11-26T11:28:03.781Z,59.40
2018-11-26T11:30:37.782Z,59.22
2018-11-26T11:35:44.484Z,59.93
2018-11-26T11:38:18.316Z,59.58
2018-11-26T11:40:52.270Z,59.54
2018-11-26T11:43:26.111Z,60.01
2018-11-26T11:46:00.065Z,59.46
2018-11-26T11:48:33.922Z,59.35
2018-11-26T11:51:07.819Z,59.32
2018-11-26T11:53:41.775Z,59.67
2018-11-26T11:56:15.641Z,59.35
2018-11-26T11:58:49.542Z,58.95
2018-11-26T12:01:23.490Z,58.81
2018-11-26T12:03:57.346Z,57.58
2018-11-26T12:06:31.211Z,58.16
2018-11-26T12:09:07.756Z,58.38
2018-11-26T12:11:41.605Z,56.54
2018-11-26T12:14:15.429Z,58.55
2018-11-26T12:16:49.353Z,57.83
2018-11-26T12:19:23.208Z,57.55
2018-11-26T12:21:57.087Z,56.99
2018-11-26T12:24:30.909Z,57.26
2018-11-26T12:27:05.001Z,56.74
2018-11-26T12:29:38.834Z,55.83
2018-11-26T12:32:12.748Z,56.02
2018-11-26T12:34:46.594Z,56.00
2018-11-26T12:37:20.430Z,55.56
2018-11-26T12:40:00.931Z,54.22
2018-11-26T12:42:34.825Z,55.90
2018-11-26T12:45:13.288Z,55.12
2018-11-26T12:47:47.472Z,55.14
2018-11-26T12:50:21.345Z,55.35
2018-11-26T12:52:55.231Z,54.78
2018-11-26T12:55:29.099Z,54.98
2018-11-26T12:58:03.034Z,55.13
2018-11-26T13:00:37.767Z,54.80
2018-11-26T13:03:13.156Z,54.49
2018-11-26T13:05:47.013Z,54.45
2018-11-26T13:08:20.862Z,54.12
2018-11-26T13:10:54.694Z,54.07
2018-11-26T13:13:28.596Z,54.55
2018-11-26T13:16:02.460Z,54.64
2018-11-26T13:18:36.475Z,54.66
2018-11-26T13:21:10.341Z,53.89
2018-11-26T13:23:44.246Z,54.61
2018-11-26T13:26:18.098Z,54.54
2018-11-26T13:28:51.979Z,54.26
2018-11-26T13:31:25.794Z,53.99
2018-11-26T13:33:59.676Z,54.71
2018-11-26T13:36:33.506Z,54.38
2018-11-26T13:39:09.427Z,54.08
2018-11-26T13:41:43.289Z,54.77
2018-11-26T13:44:17.142Z,55.13
2018-11-26T13:46:51.039Z,54.73
2018-11-26T13:49:24.976Z,55.48
2018-11-26T13:51:58.826Z,55.30
2018-11-26T13:54:32.736Z,55.50
2018-11-26T13:57:06.929Z,55.75
2018-11-26T13:59:40.777Z,55.57
2018-11-26T14:02:18.711Z,55.89
2018-11-26T14:04:52.565Z,55.43
2018-11-26T14:07:26.393Z,55.43
2018-11-26T14:10:00.299Z,55.74
2018-11-26T14:12:34.142Z,55.77
2018-11-26T14:15:11.538Z,55.98
2018-11-26T14:17:45.379Z,56.02
2018-11-26T14:20:19.320Z,56.17
2018-11-26T14:22:53.230Z,56.17
2018-11-26T14:25:27.115Z,56.06
2018-11-26T14:28:00.960Z,56.40
2018-11-26T14:30:34.947Z,56.13
2018-11-26T14:33:08.817Z,55.87
2018-11-26T14:35:42.762Z,56.14
2018-11-26T14:38:16.567Z,56.16
2018-11-26T14:40:52.595Z,56.40
2018-11-26T14:43:26.504Z,55.67
2018-11-26T14:46:00.544Z,55.91
2018-11-26T14:48:34.391Z,56.33
2018-11-26T14:51:08.408Z,56.42
2018-11-26T14:53:42.258Z,56.00
2018-11-26T14:56:16.198Z,56.12
2018-11-26T14:58:50.036Z,56.40
2018-11-26T15:01:23.897Z,56.24
2018-11-26T15:03:57.763Z,56.26
2018-11-26T15:06:31.845Z,56.14
2018-11-26T15:09:08.717Z,56.22
2018-11-26T15:11:42.832Z,56.24
2018-11-26T15:14:16.740Z,56.23
2018-11-26T15:16:50.610Z,56.46
2018-11-26T15:19:24.471Z,56.06
2018-11-26T15:21:58.337Z,56.47
2018-11-26T15:24:32.177Z,56.52
2018-11-26T15:27:06.404Z,56.89
2018-11-26T15:29:40.303Z,56.66
2018-11-26T15:32:14.247Z,56.51
2018-11-26T15:34:48.170Z,56.95
2018-11-26T15:37:22.108Z,56.34
2018-11-26T15:39:56.002Z,56.78
2018-11-26T15:42:29.914Z,56.74
2018-11-26T15:45:03.928Z,56.32
2018-11-26T15:47:38.013Z,56.25
2018-11-26T15:50:12.006Z,56.18
2018-11-26T15:52:45.967Z,55.91
2018-11-26T15:55:20.938Z,55.68
2018-11-26T15:57:54.906Z,56.19
2018-11-26T16:00:28.746Z,56.32
2018-11-26T16:03:02.657Z,56.23
2018-11-26T16:05:36.831Z,56.22
2018-11-26T16:08:12.364Z,56.17
2018-11-26T16:10:46.200Z,55.83
2018-11-26T16:13:20.127Z,56.13
2018-11-26T16:15:53.991Z,56.33
2018-11-26T16:18:27.858Z,55.87
2018-11-26T16:21:01.700Z,55.99
2018-11-26T16:23:35.660Z,56.12
2018-11-26T16:26:09.532Z,56.08
2018-11-26T16:28:43.434Z,56.05
2018-11-26T16:31:17.275Z,56.11
2018-11-26T16:33:51.198Z,56.11
2018-11-26T16:36:25.058Z,56.26
2018-11-26T16:38:59.032Z,56.39
2018-11-26T16:41:32.881Z,56.57
2018-11-26T16:44:06.762Z,56.67
2018-11-26T16:46:40.625Z,56.66
2018-11-26T16:49:14.493Z,56.28
2018-11-26T16:51:48.467Z,56.75
2018-11-26T16:54:22.344Z,56.69
2018-11-26T16:56:56.184Z,56.80
2018-11-26T16:59:30.218Z,56.67
2018-11-26T17:02:04.100Z,56.81
2018-11-26T17:04:37.977Z,57.08
2018-11-26T17:07:11.853Z,56.70
2018-11-26T17:09:45.827Z,56.73
2018-11-26T17:12:19.681Z,56.84
2018-11-26T17:14:53.567Z,57.01
2018-11-26T17:17:27.519Z,57.24
2018-11-26T17:20:01.409Z,58.02
2018-11-26T17:22:35.218Z,57.73
2018-11-26T17:25:11.434Z,57.58
2018-11-26T17:27:45.668Z,57.64
2018-11-26T17:30:22.945Z,57.44
2018-11-26T17:33:00.959Z,57.33
2018-11-26T17:35:34.949Z,57.36
2018-11-26T17:38:08.997Z,57.35
2018-11-26T17:40:42.883Z,57.72
2018-11-26T17:43:16.749Z,57.39
2018-11-26T17:45:50.629Z,57.84
2018-11-26T17:48:24.490Z,57.52
2018-11-26T17:50:58.376Z,57.49
2018-11-26T17:53:32.218Z,57.22
2018-11-26T17:56:06.573Z,57.34
2018-11-26T17:58:40.415Z,57.77
2018-11-26T18:01:23.930Z,57.96
2018-11-26T18:03:57.776Z,57.83
2018-11-26T18:06:31.725Z,57.39
2018-11-26T18:09:11.481Z,57.54
2018-11-26T18:11:45.444Z,57.68
2018-11-26T18:14:19.289Z,57.75
2018-11-26T18:16:53.228Z,57.66
2018-11-26T18:19:27.051Z,57.89
2018-11-26T18:22:00.924Z,57.98
2018-11-26T18:24:34.765Z,57.91
2018-11-26T18:27:09.814Z,57.96
2018-11-26T18:29:43.696Z,57.74
2018-11-26T18:32:17.578Z,57.85
2018-11-26T18:34:51.458Z,57.95
2018-11-26T18:37:25.329Z,57.92
2018-11-26T18:39:59.891Z,58.07
2018-11-26T18:42:33.826Z,58.42
2018-11-26T18:45:12.872Z,58.27
2018-11-26T18:47:47.662Z,58.40
2018-11-26T18:50:22.291Z,58.44
2018-11-26T18:52:56.198Z,58.39
2018-11-26T18:55:30.096Z,58.58
2018-11-26T18:58:04.493Z,58.60
2018-11-26T19:00:43.067Z,58.60
2018-11-26T19:03:20.821Z,58.48
2018-11-26T19:05:55.281Z,58.39
2018-11-26T19:08:29.184Z,58.66
2018-11-26T19:11:10.897Z,58.57
2018-11-26T19:13:53.188Z,58.58
2018-11-26T19:16:28.980Z,58.83
2018-11-26T19:19:03.093Z,58.63
2018-11-26T19:21:37.034Z,58.96
2018-11-26T19:24:11.235Z,58.84
2018-11-26T19:26:45.069Z,59.04
2018-11-26T19:29:19.157Z,59.33
2018-11-26T19:31:56.040Z,59.34
2018-11-26T19:34:27.032Z,59.48
2018-11-26T19:37:00.905Z,59.53
2018-11-26T19:39:34.791Z,59.37
2018-11-26T19:42:08.761Z,59.41
2018-11-26T19:44:43.142Z,59.59
2018-11-26T19:47:17.058Z,59.46
2018-11-26T19:49:52.004Z,59.63
2018-11-26T19:52:25.893Z,59.66
2018-11-26T19:55:00.096Z,59.47
2018-11-26T19:57:33.964Z,59.67
2018-11-26T20:00:12.621Z,59.73
2018-11-26T20:02:49.330Z,59.68
2018-11-26T20:05:26.420Z,59.55
2018-11-26T20:08:00.271Z,59.62
2018-11-26T20:10:34.195Z,59.24
2018-11-26T20:13:08.040Z,59.46
2018-11-26T20:15:41.855Z,59.68
2018-11-26T20:18:15.712Z,59.76
2018-11-26T20:20:49.656Z,59.40
2018-11-26T20:23:23.531Z,59.20
2018-11-26T20:25:57.649Z,59.38
2018-11-26T20:28:31.599Z,59.34
2018-11-26T20:31:05.944Z,59.36
2018-11-26T20:33:39.927Z,59.29
2018-11-26T20:36:14.891Z,59.39
2018-11-26T20:38:48.956Z,59.49
2018-11-26T20:41:22.839Z,59.67
2018-11-26T20:43:56.815Z,59.57
2018-11-26T20:46:30.689Z,59.63
2018-11-26T20:49:05.073Z,59.67
2018-11-26T20:52:41.903Z,59.71
2018-11-26T20:55:18.132Z,59.44
2018-11-26T20:57:53.038Z,59.58
2018-11-26T21:00:28.124Z,59.78
2018-11-26T21:03:07.970Z,59.79
2018-11-26T21:05:42.547Z,59.73
2018-11-26T21:08:16.449Z,59.53
2018-11-26T21:10:50.382Z,59.73
2018-11-26T21:13:24.301Z,59.73
2018-11-26T21:15:58.354Z,59.87
2018-11-26T21:18:32.278Z,59.91
2018-11-26T21:21:07.599Z,59.87
2018-11-26T21:23:41.695Z,59.85
2018-11-26T21:26:15.709Z,59.93
2018-11-26T21:28:49.593Z,60.02
2018-11-26T21:31:23.872Z,59.90
2018-11-26T21:33:57.489Z,59.83
2018-11-26T21:36:31.699Z,59.93
2018-11-26T21:39:08.913Z,60.00
2018-11-26T21:41:42.907Z,60.37
2018-11-26T21:44:16.853Z,60.03
2018-11-26T21:46:52.992Z,60.41
2018-11-26T21:49:24.891Z,60.15
2018-11-26T21:51:58.802Z,60.26
2018-11-26T21:54:32.830Z,60.27
2018-11-26T21:57:06.940Z,60.43
2018-11-26T21:59:40.839Z,60.50
2018-11-26T22:02:14.767Z,60.59
2018-11-26T22:04:48.638Z,60.49
2018-11-26T22:07:22.679Z,60.28
2018-11-26T22:09:56.580Z,60.28
2018-11-26T22:12:30.485Z,60.29
2018-11-26T22:15:04.449Z,60.19
2018-11-26T22:17:38.913Z,60.40
2018-11-26T22:20:16.998Z,60.69
2018-11-26T22:22:50.912Z,60.48
2018-11-26T22:25:24.950Z,60.53
2018-11-26T22:27:58.966Z,60.49
2018-11-26T22:30:33.948Z,60.45
2018-11-26T22:33:09.040Z,60.49
2018-11-26T22:35:42.283Z,60.82
2018-11-26T22:38:16.306Z,60.61
2018-11-26T22:40:50.131Z,60.74
2018-11-26T22:43:24.009Z,60.76
2018-11-26T22:45:57.832Z,60.45
2018-11-26T22:48:31.761Z,60.71
2018-11-26T22:51:05.805Z,60.50
2018-11-26T22:53:39.715Z,60.73
2018-11-26T22:56:13.571Z,60.62
2018-11-26T22:58:47.564Z,60.65
2018-11-26T23:01:21.357Z,60.26
2018-11-26T23:03:55.407Z,60.53
2018-11-26T23:06:29.242Z,60.60
2018-11-26T23:09:03.191Z,60.60
2018-11-26T23:11:37.155Z,60.62
2018-11-26T23:14:11.027Z,60.76
2018-11-26T23:16:44.881Z,60.77
2018-11-26T23:19:18.743Z,60.67
2018-11-26T23:21:52.558Z,60.85
2018-11-26T23:24:26.437Z,60.67
2018-11-26T23:27:00.306Z,60.92
2018-11-26T23:29:34.168Z,60.68
2018-11-26T23:32:08.073Z,60.90
2018-11-26T23:34:41.958Z,61.05
2018-11-26T23:37:15.989Z,60.76
2018-11-26T23:39:50.094Z,60.75
2018-11-26T23:42:25.122Z,60.86
2018-11-26T23:45:00.290Z,60.51
2018-11-26T23:47:35.236Z,60.61
2018-11-26T23:50:11.121Z,60.47
2018-11-26T23:52:45.457Z,60.41
2018-11-26T23:55:20.576Z,60.62
2018-11-26T23:57:54.472Z,60.72
